sensor_id;sensor_type;location;lat;lon;timestamp;temperature;humidity
16128;DHT22;8168;49.036;7.690;2022-08-21T00:00:06;15.60;95.80
16128;DHT22;8168;49.036;7.690;2022-08-21T00:02:46;15.60;95.90
16128;DHT22;8168;49.036;7.690;2022-08-21T00:05:18;15.60;96.00
16128;DHT22;8168;49.036;7.690;2022-08-21T00:07:49;15.60;96.10
16128;DHT22;8168;49.036;7.690;2022-08-21T00:10:20;15.50;96.20
16128;DHT22;8168;49.036;7.690;2022-08-21T00:12:51;15.50;96.30
16128;DHT22;8168;49.036;7.690;2022-08-21T00:15:31;15.50;96.40
16128;DHT22;8168;49.036;7.690;2022-08-21T00:18:03;15.40;96.30
16128;DHT22;8168;49.036;7.690;2022-08-21T00:20:34;15.40;96.40
16128;DHT22;8168;49.036;7.690;2022-08-21T00:23:05;15.40;96.50
16128;DHT22;8168;49.036;7.690;2022-08-21T00:25:37;15.30;96.50
16128;DHT22;8168;49.036;7.690;2022-08-21T00:28:08;15.30;96.50
16128;DHT22;8168;49.036;7.690;2022-08-21T00:30:39;15.30;96.60
16128;DHT22;8168;49.036;7.690;2022-08-21T00:33:10;15.20;96.70
16128;DHT22;8168;49.036;7.690;2022-08-21T00:35:42;15.20;96.80
16128;DHT22;8168;49.036;7.690;2022-08-21T00:38:13;15.30;96.90
16128;DHT22;8168;49.036;7.690;2022-08-21T00:40:48;15.10;96.80
16128;DHT22;8168;49.036;7.690;2022-08-21T00:43:22;15.20;97.10
16128;DHT22;8168;49.036;7.690;2022-08-21T00:45:55;15.10;97.20
16128;DHT22;8168;49.036;7.690;2022-08-21T00:48:26;15.10;97.20
16128;DHT22;8168;49.036;7.690;2022-08-21T00:51:21;15.00;97.10
16128;DHT22;8168;49.036;7.690;2022-08-21T00:53:58;15.00;97.20
16128;DHT22;8168;49.036;7.690;2022-08-21T00:56:29;14.90;97.30
16128;DHT22;8168;49.036;7.690;2022-08-21T00:59:01;14.90;97.40
16128;DHT22;8168;49.036;7.690;2022-08-21T01:01:33;14.80;97.60
16128;DHT22;8168;49.036;7.690;2022-08-21T01:04:03;14.80;97.70
16128;DHT22;8168;49.036;7.690;2022-08-21T01:06:34;14.80;97.70
16128;DHT22;8168;49.036;7.690;2022-08-21T01:09:05;14.80;97.70
16128;DHT22;8168;49.036;7.690;2022-08-21T01:11:36;14.80;97.80
16128;DHT22;8168;49.036;7.690;2022-08-21T01:14:07;14.80;97.90
16128;DHT22;8168;49.036;7.690;2022-08-21T01:16:40;14.70;97.80
16128;DHT22;8168;49.036;7.690;2022-08-21T01:19:12;14.70;97.80
16128;DHT22;8168;49.036;7.690;2022-08-21T01:21:44;14.60;97.90
16128;DHT22;8168;49.036;7.690;2022-08-21T01:24:15;14.70;98.20
16128;DHT22;8168;49.036;7.690;2022-08-21T01:26:45;14.60;98.20
16128;DHT22;8168;49.036;7.690;2022-08-21T01:29:29;14.60;98.10
16128;DHT22;8168;49.036;7.690;2022-08-21T01:32:06;14.50;98.20
16128;DHT22;8168;49.036;7.690;2022-08-21T01:34:40;14.50;98.30
16128;DHT22;8168;49.036;7.690;2022-08-21T01:37:12;14.50;98.40
16128;DHT22;8168;49.036;7.690;2022-08-21T01:39:43;14.50;98.50
16128;DHT22;8168;49.036;7.690;2022-08-21T01:42:14;14.50;98.60
16128;DHT22;8168;49.036;7.690;2022-08-21T01:44:44;14.40;98.70
16128;DHT22;8168;49.036;7.690;2022-08-21T01:47:15;14.40;98.70
16128;DHT22;8168;49.036;7.690;2022-08-21T01:49:46;14.40;98.70
16128;DHT22;8168;49.036;7.690;2022-08-21T01:52:17;14.40;98.80
16128;DHT22;8168;49.036;7.690;2022-08-21T01:54:48;14.30;98.70
16128;DHT22;8168;49.036;7.690;2022-08-21T01:57:19;14.30;98.70
16128;DHT22;8168;49.036;7.690;2022-08-21T01:59:49;14.30;98.80
16128;DHT22;8168;49.036;7.690;2022-08-21T02:02:20;14.20;98.70
16128;DHT22;8168;49.036;7.690;2022-08-21T02:04:50;14.20;99.00
16128;DHT22;8168;49.036;7.690;2022-08-21T02:07:21;14.20;99.00
16128;DHT22;8168;49.036;7.690;2022-08-21T02:09:52;14.20;99.10
16128;DHT22;8168;49.036;7.690;2022-08-21T02:12:22;14.20;99.10
16128;DHT22;8168;49.036;7.690;2022-08-21T02:14:53;14.10;99.10
16128;DHT22;8168;49.036;7.690;2022-08-21T02:17:24;14.10;99.10
16128;DHT22;8168;49.036;7.690;2022-08-21T02:19:54;14.00;99.10
16128;DHT22;8168;49.036;7.690;2022-08-21T02:22:25;14.00;99.20
16128;DHT22;8168;49.036;7.690;2022-08-21T02:24:55;14.00;99.40
16128;DHT22;8168;49.036;7.690;2022-08-21T02:27:26;14.00;99.40
16128;DHT22;8168;49.036;7.690;2022-08-21T02:29:57;14.00;99.40
16128;DHT22;8168;49.036;7.690;2022-08-21T02:32:28;13.90;99.40
16128;DHT22;8168;49.036;7.690;2022-08-21T02:34:58;13.90;99.40
16128;DHT22;8168;49.036;7.690;2022-08-21T02:37:29;13.90;99.30
16128;DHT22;8168;49.036;7.690;2022-08-21T02:40:00;13.90;99.40
16128;DHT22;8168;49.036;7.690;2022-08-21T02:42:31;13.90;99.40
16128;DHT22;8168;49.036;7.690;2022-08-21T02:45:02;13.80;99.50
16128;DHT22;8168;49.036;7.690;2022-08-21T02:47:33;13.80;99.40
16128;DHT22;8168;49.036;7.690;2022-08-21T02:50:05;13.80;99.50
16128;DHT22;8168;49.036;7.690;2022-08-21T02:52:36;13.80;99.60
16128;DHT22;8168;49.036;7.690;2022-08-21T02:55:07;13.70;99.50
16128;DHT22;8168;49.036;7.690;2022-08-21T02:57:37;13.70;99.60
16128;DHT22;8168;49.036;7.690;2022-08-21T03:00:09;13.60;99.60
16128;DHT22;8168;49.036;7.690;2022-08-21T03:02:41;13.60;99.60
16128;DHT22;8168;49.036;7.690;2022-08-21T03:05:13;13.60;99.70
16128;DHT22;8168;49.036;7.690;2022-08-21T03:07:46;13.60;99.70
16128;DHT22;8168;49.036;7.690;2022-08-21T03:10:17;13.60;99.70
16128;DHT22;8168;49.036;7.690;2022-08-21T03:12:50;13.60;99.70
16128;DHT22;8168;49.036;7.690;2022-08-21T03:15:22;13.50;99.70
16128;DHT22;8168;49.036;7.690;2022-08-21T03:17:56;13.40;99.70
16128;DHT22;8168;49.036;7.690;2022-08-21T03:20:27;13.40;99.90
16128;DHT22;8168;49.036;7.690;2022-08-21T03:22:58;13.40;99.90
16128;DHT22;8168;49.036;7.690;2022-08-21T03:25:30;13.40;99.90
16128;DHT22;8168;49.036;7.690;2022-08-21T03:28:06;13.40;99.90
16128;DHT22;8168;49.036;7.690;2022-08-21T03:30:37;13.40;99.90
16128;DHT22;8168;49.036;7.690;2022-08-21T03:33:07;13.40;99.90
16128;DHT22;8168;49.036;7.690;2022-08-21T03:35:38;13.30;99.90
16128;DHT22;8168;49.036;7.690;2022-08-21T03:38:09;13.30;99.90
16128;DHT22;8168;49.036;7.690;2022-08-21T03:40:43;13.20;99.90
16128;DHT22;8168;49.036;7.690;2022-08-21T03:43:13;13.20;99.90
16128;DHT22;8168;49.036;7.690;2022-08-21T03:45:44;13.20;99.90
16128;DHT22;8168;49.036;7.690;2022-08-21T03:48:15;13.20;99.90
16128;DHT22;8168;49.036;7.690;2022-08-21T03:50:45;13.20;99.90
16128;DHT22;8168;49.036;7.690;2022-08-21T03:53:17;13.10;99.90
16128;DHT22;8168;49.036;7.690;2022-08-21T03:55:49;13.10;99.90
16128;DHT22;8168;49.036;7.690;2022-08-21T03:58:23;13.10;99.90
16128;DHT22;8168;49.036;7.690;2022-08-21T04:00:57;13.10;99.90
16128;DHT22;8168;49.036;7.690;2022-08-21T04:03:28;13.00;99.90
16128;DHT22;8168;49.036;7.690;2022-08-21T04:05:59;13.00;99.90
16128;DHT22;8168;49.036;7.690;2022-08-21T04:08:30;13.00;99.90
16128;DHT22;8168;49.036;7.690;2022-08-21T04:11:01;13.00;99.90
16128;DHT22;8168;49.036;7.690;2022-08-21T04:13:32;12.90;99.90
16128;DHT22;8168;49.036;7.690;2022-08-21T04:16:03;12.90;99.90
16128;DHT22;8168;49.036;7.690;2022-08-21T04:18:33;12.90;99.90
16128;DHT22;8168;49.036;7.690;2022-08-21T04:21:05;12.90;99.90
16128;DHT22;8168;49.036;7.690;2022-08-21T04:23:36;12.90;99.90
16128;DHT22;8168;49.036;7.690;2022-08-21T04:26:07;12.90;99.90
16128;DHT22;8168;49.036;7.690;2022-08-21T04:28:38;12.80;99.90
16128;DHT22;8168;49.036;7.690;2022-08-21T04:31:09;12.80;99.90
16128;DHT22;8168;49.036;7.690;2022-08-21T04:33:39;12.80;99.90
16128;DHT22;8168;49.036;7.690;2022-08-21T04:36:11;12.80;99.90
16128;DHT22;8168;49.036;7.690;2022-08-21T04:38:41;12.80;99.90
16128;DHT22;8168;49.036;7.690;2022-08-21T04:41:12;12.70;99.90
16128;DHT22;8168;49.036;7.690;2022-08-21T04:43:43;12.70;99.90
16128;DHT22;8168;49.036;7.690;2022-08-21T04:46:13;12.60;99.90
16128;DHT22;8168;49.036;7.690;2022-08-21T04:48:44;12.60;99.90
16128;DHT22;8168;49.036;7.690;2022-08-21T04:51:24;12.60;99.90
16128;DHT22;8168;49.036;7.690;2022-08-21T04:54:02;12.60;99.90
16128;DHT22;8168;49.036;7.690;2022-08-21T04:56:45;12.60;99.90
16128;DHT22;8168;49.036;7.690;2022-08-21T04:59:28;12.60;99.90
16128;DHT22;8168;49.036;7.690;2022-08-21T05:02:00;12.60;99.90
16128;DHT22;8168;49.036;7.690;2022-08-21T05:04:33;12.60;99.90
16128;DHT22;8168;49.036;7.690;2022-08-21T05:07:09;12.60;99.90
16128;DHT22;8168;49.036;7.690;2022-08-21T05:09:40;12.50;99.90
16128;DHT22;8168;49.036;7.690;2022-08-21T05:12:12;12.50;99.90
16128;DHT22;8168;49.036;7.690;2022-08-21T05:14:42;12.50;99.90
16128;DHT22;8168;49.036;7.690;2022-08-21T05:17:13;12.50;99.90
16128;DHT22;8168;49.036;7.690;2022-08-21T05:19:44;12.50;99.90
16128;DHT22;8168;49.036;7.690;2022-08-21T05:22:22;12.50;99.90
16128;DHT22;8168;49.036;7.690;2022-08-21T05:24:54;12.50;99.90
16128;DHT22;8168;49.036;7.690;2022-08-21T05:27:25;12.60;99.90
16128;DHT22;8168;49.036;7.690;2022-08-21T05:29:56;12.60;99.90
16128;DHT22;8168;49.036;7.690;2022-08-21T05:32:27;12.60;99.90
16128;DHT22;8168;49.036;7.690;2022-08-21T05:34:58;12.70;99.90
16128;DHT22;8168;49.036;7.690;2022-08-21T05:37:29;12.60;99.90
16128;DHT22;8168;49.036;7.690;2022-08-21T05:40:00;12.70;99.90
16128;DHT22;8168;49.036;7.690;2022-08-21T05:42:32;12.70;99.90
16128;DHT22;8168;49.036;7.690;2022-08-21T05:45:03;12.80;99.90
16128;DHT22;8168;49.036;7.690;2022-08-21T05:47:33;12.80;99.90
16128;DHT22;8168;49.036;7.690;2022-08-21T05:50:04;12.90;99.90
16128;DHT22;8168;49.036;7.690;2022-08-21T05:52:35;13.00;99.90
16128;DHT22;8168;49.036;7.690;2022-08-21T05:55:06;13.00;99.90
16128;DHT22;8168;49.036;7.690;2022-08-21T05:57:37;13.00;99.90
16128;DHT22;8168;49.036;7.690;2022-08-21T06:00:11;13.10;99.90
16128;DHT22;8168;49.036;7.690;2022-08-21T06:02:42;13.20;99.90
16128;DHT22;8168;49.036;7.690;2022-08-21T06:05:13;13.20;99.90
16128;DHT22;8168;49.036;7.690;2022-08-21T06:07:44;13.30;99.90
16128;DHT22;8168;49.036;7.690;2022-08-21T06:10:15;13.30;99.90
16128;DHT22;8168;49.036;7.690;2022-08-21T06:12:45;13.40;99.90
16128;DHT22;8168;49.036;7.690;2022-08-21T06:15:16;13.50;99.90
16128;DHT22;8168;49.036;7.690;2022-08-21T06:17:47;13.50;99.90
16128;DHT22;8168;49.036;7.690;2022-08-21T06:20:17;13.60;99.90
16128;DHT22;8168;49.036;7.690;2022-08-21T06:22:48;13.70;99.90
16128;DHT22;8168;49.036;7.690;2022-08-21T06:25:19;13.80;99.90
16128;DHT22;8168;49.036;7.690;2022-08-21T06:27:50;13.80;99.90
16128;DHT22;8168;49.036;7.690;2022-08-21T06:30:20;13.90;99.90
16128;DHT22;8168;49.036;7.690;2022-08-21T06:32:51;14.00;99.90
16128;DHT22;8168;49.036;7.690;2022-08-21T06:35:22;14.10;99.90
16128;DHT22;8168;49.036;7.690;2022-08-21T06:37:52;14.10;99.90
16128;DHT22;8168;49.036;7.690;2022-08-21T06:40:23;14.20;99.90
16128;DHT22;8168;49.036;7.690;2022-08-21T06:42:54;14.40;99.90
16128;DHT22;8168;49.036;7.690;2022-08-21T06:45:24;14.50;99.90
16128;DHT22;8168;49.036;7.690;2022-08-21T06:47:55;14.50;99.90
16128;DHT22;8168;49.036;7.690;2022-08-21T06:50:26;14.60;99.90
16128;DHT22;8168;49.036;7.690;2022-08-21T06:53:08;14.70;99.90
16128;DHT22;8168;49.036;7.690;2022-08-21T06:55:40;14.70;99.90
16128;DHT22;8168;49.036;7.690;2022-08-21T06:58:11;14.80;99.90
16128;DHT22;8168;49.036;7.690;2022-08-21T07:00:44;14.90;99.90
16128;DHT22;8168;49.036;7.690;2022-08-21T07:03:25;15.00;99.90
16128;DHT22;8168;49.036;7.690;2022-08-21T07:05:57;15.10;99.90
16128;DHT22;8168;49.036;7.690;2022-08-21T07:08:28;15.20;99.90
16128;DHT22;8168;49.036;7.690;2022-08-21T07:11:02;15.30;99.90
16128;DHT22;8168;49.036;7.690;2022-08-21T07:13:33;15.40;99.90
16128;DHT22;8168;49.036;7.690;2022-08-21T07:16:04;15.50;99.90
16128;DHT22;8168;49.036;7.690;2022-08-21T07:18:35;15.70;99.90
16128;DHT22;8168;49.036;7.690;2022-08-21T07:21:06;15.80;99.90
16128;DHT22;8168;49.036;7.690;2022-08-21T07:23:44;15.90;99.90
16128;DHT22;8168;49.036;7.690;2022-08-21T07:26:19;16.00;99.90
16128;DHT22;8168;49.036;7.690;2022-08-21T07:28:51;16.20;99.90
16128;DHT22;8168;49.036;7.690;2022-08-21T07:31:25;16.40;99.90
16128;DHT22;8168;49.036;7.690;2022-08-21T07:33:56;16.90;99.90
16128;DHT22;8168;49.036;7.690;2022-08-21T07:36:27;16.70;99.90
16128;DHT22;8168;49.036;7.690;2022-08-21T07:38:57;16.70;99.90
16128;DHT22;8168;49.036;7.690;2022-08-21T07:41:29;16.80;99.90
16128;DHT22;8168;49.036;7.690;2022-08-21T07:44:00;17.00;99.90
16128;DHT22;8168;49.036;7.690;2022-08-21T07:46:30;17.10;99.90
16128;DHT22;8168;49.036;7.690;2022-08-21T07:49:01;17.20;99.90
16128;DHT22;8168;49.036;7.690;2022-08-21T07:51:32;17.30;99.90
16128;DHT22;8168;49.036;7.690;2022-08-21T07:54:04;17.40;99.90
16128;DHT22;8168;49.036;7.690;2022-08-21T07:56:34;17.40;99.90
16128;DHT22;8168;49.036;7.690;2022-08-21T07:59:05;17.60;99.90
16128;DHT22;8168;49.036;7.690;2022-08-21T08:01:35;17.70;99.90
16128;DHT22;8168;49.036;7.690;2022-08-21T08:04:06;17.90;99.90
16128;DHT22;8168;49.036;7.690;2022-08-21T08:06:37;18.00;99.90
16128;DHT22;8168;49.036;7.690;2022-08-21T08:09:07;18.20;99.90
16128;DHT22;8168;49.036;7.690;2022-08-21T08:11:39;18.30;99.90
16128;DHT22;8168;49.036;7.690;2022-08-21T08:14:11;18.40;99.90
16128;DHT22;8168;49.036;7.690;2022-08-21T08:16:42;18.60;99.90
16128;DHT22;8168;49.036;7.690;2022-08-21T08:19:13;18.70;99.90
16128;DHT22;8168;49.036;7.690;2022-08-21T08:21:43;18.90;99.90
16128;DHT22;8168;49.036;7.690;2022-08-21T08:24:14;19.00;99.90
16128;DHT22;8168;49.036;7.690;2022-08-21T08:26:45;19.10;99.90
16128;DHT22;8168;49.036;7.690;2022-08-21T08:29:15;19.20;99.90
16128;DHT22;8168;49.036;7.690;2022-08-21T08:31:46;19.30;99.90
16128;DHT22;8168;49.036;7.690;2022-08-21T08:34:17;19.30;99.50
16128;DHT22;8168;49.036;7.690;2022-08-21T08:36:48;19.50;99.60
16128;DHT22;8168;49.036;7.690;2022-08-21T08:39:19;19.70;98.50
16128;DHT22;8168;49.036;7.690;2022-08-21T08:42:14;20.10;97.30
16128;DHT22;8168;49.036;7.690;2022-08-21T08:44:45;20.20;97.30
16128;DHT22;8168;49.036;7.690;2022-08-21T08:47:17;20.30;96.20
16128;DHT22;8168;49.036;7.690;2022-08-21T08:50:09;20.50;96.30
16128;DHT22;8168;49.036;7.690;2022-08-21T08:53:05;20.50;95.50
16128;DHT22;8168;49.036;7.690;2022-08-21T08:55:38;20.60;94.10
16128;DHT22;8168;49.036;7.690;2022-08-21T08:58:22;20.80;94.10
16128;DHT22;8168;49.036;7.690;2022-08-21T09:00:54;21.10;93.60
16128;DHT22;8168;49.036;7.690;2022-08-21T09:03:27;21.20;93.40
16128;DHT22;8168;49.036;7.690;2022-08-21T09:06:13;21.20;93.80
16128;DHT22;8168;49.036;7.690;2022-08-21T09:08:58;21.30;93.80
16128;DHT22;8168;49.036;7.690;2022-08-21T09:11:37;21.50;93.80
16128;DHT22;8168;49.036;7.690;2022-08-21T09:25:44;21.90;91.70
16128;DHT22;8168;49.036;7.690;2022-08-21T09:28:16;21.90;91.70
16128;DHT22;8168;49.036;7.690;2022-08-21T09:30:46;21.90;91.80
16128;DHT22;8168;49.036;7.690;2022-08-21T09:33:17;22.00;91.60
16128;DHT22;8168;49.036;7.690;2022-08-21T09:35:53;22.10;91.60
16128;DHT22;8168;49.036;7.690;2022-08-21T09:38:34;22.40;92.50
16128;DHT22;8168;49.036;7.690;2022-08-21T09:41:07;22.60;91.40
16128;DHT22;8168;49.036;7.690;2022-08-21T09:43:39;22.70;91.30
16128;DHT22;8168;49.036;7.690;2022-08-21T09:46:21;22.80;90.70
16128;DHT22;8168;49.036;7.690;2022-08-21T09:48:58;22.80;90.60
16128;DHT22;8168;49.036;7.690;2022-08-21T09:51:32;23.00;90.70
16128;DHT22;8168;49.036;7.690;2022-08-21T09:56:50;23.10;89.70
16128;DHT22;8168;49.036;7.690;2022-08-21T09:59:41;23.40;87.40
16128;DHT22;8168;49.036;7.690;2022-08-21T10:02:31;23.40;86.20
16128;DHT22;8168;49.036;7.690;2022-08-21T10:05:23;23.30;85.70
16128;DHT22;8168;49.036;7.690;2022-08-21T10:07:53;23.30;84.80
16128;DHT22;8168;49.036;7.690;2022-08-21T10:10:32;23.30;84.30
16128;DHT22;8168;49.036;7.690;2022-08-21T10:22:00;23.30;85.80
16128;DHT22;8168;49.036;7.690;2022-08-21T10:30:19;23.90;83.60
16128;DHT22;8168;49.036;7.690;2022-08-21T10:33:11;23.90;83.20
16128;DHT22;8168;49.036;7.690;2022-08-21T10:35:47;23.80;83.30
16128;DHT22;8168;49.036;7.690;2022-08-21T10:42:09;24.30;84.70
16128;DHT22;8168;49.036;7.690;2022-08-21T10:44:22;24.60;82.90
16128;DHT22;8168;49.036;7.690;2022-08-21T10:47:04;24.90;83.10
16128;DHT22;8168;49.036;7.690;2022-08-21T10:49:44;25.00;80.50
16128;DHT22;8168;49.036;7.690;2022-08-21T10:56:12;24.80;78.80
16128;DHT22;8168;49.036;7.690;2022-08-21T10:58:32;24.70;77.80
16128;DHT22;8168;49.036;7.690;2022-08-21T11:01:10;24.50;76.80
16128;DHT22;8168;49.036;7.690;2022-08-21T11:03:45;24.40;77.00
16128;DHT22;8168;49.036;7.690;2022-08-21T11:06:21;24.30;77.20
16128;DHT22;8168;49.036;7.690;2022-08-21T11:08:58;24.30;77.80
16128;DHT22;8168;49.036;7.690;2022-08-21T11:11:34;24.40;77.70
16128;DHT22;8168;49.036;7.690;2022-08-21T11:14:24;24.50;77.80
16128;DHT22;8168;49.036;7.690;2022-08-21T11:17:07;24.60;78.10
16128;DHT22;8168;49.036;7.690;2022-08-21T11:22:32;24.40;78.80
16128;DHT22;8168;49.036;7.690;2022-08-21T11:27:45;24.70;77.20
16128;DHT22;8168;49.036;7.690;2022-08-21T11:30:16;24.80;75.60
16128;DHT22;8168;49.036;7.690;2022-08-21T11:35:47;24.80;73.70
16128;DHT22;8168;49.036;7.690;2022-08-21T11:38:41;24.70;75.10
16128;DHT22;8168;49.036;7.690;2022-08-21T11:49:24;25.50;75.00
16128;DHT22;8168;49.036;7.690;2022-08-21T11:52:26;25.30;73.40
16128;DHT22;8168;49.036;7.690;2022-08-21T11:57:59;25.50;71.00
16128;DHT22;8168;49.036;7.690;2022-08-21T12:00:45;25.30;73.20
16128;DHT22;8168;49.036;7.690;2022-08-21T12:03:27;25.20;73.30
16128;DHT22;8168;49.036;7.690;2022-08-21T12:06:01;25.00;72.40
16128;DHT22;8168;49.036;7.690;2022-08-21T12:08:43;24.90;73.20
16128;DHT22;8168;49.036;7.690;2022-08-21T12:14:17;24.80;72.40
16128;DHT22;8168;49.036;7.690;2022-08-21T12:16:49;25.10;73.10
16128;DHT22;8168;49.036;7.690;2022-08-21T12:24:38;26.00;70.00
16128;DHT22;8168;49.036;7.690;2022-08-21T12:30:03;26.20;67.00
16128;DHT22;8168;49.036;7.690;2022-08-21T12:32:44;26.50;68.30
16128;DHT22;8168;49.036;7.690;2022-08-21T12:35:21;26.60;67.20
16128;DHT22;8168;49.036;7.690;2022-08-21T12:38:07;26.60;66.50
16128;DHT22;8168;49.036;7.690;2022-08-21T12:40:45;26.70;64.70
16128;DHT22;8168;49.036;7.690;2022-08-21T12:43:27;26.80;64.40
16128;DHT22;8168;49.036;7.690;2022-08-21T12:46:00;26.90;65.00
16128;DHT22;8168;49.036;7.690;2022-08-21T12:51:14;27.10;63.10
16128;DHT22;8168;49.036;7.690;2022-08-21T12:53:51;27.00;61.60
16128;DHT22;8168;49.036;7.690;2022-08-21T12:56:28;26.80;62.00
16128;DHT22;8168;49.036;7.690;2022-08-21T12:59:05;26.70;63.20
16128;DHT22;8168;49.036;7.690;2022-08-21T13:01:48;26.50;62.20
16128;DHT22;8168;49.036;7.690;2022-08-21T13:04:33;26.60;61.40
16128;DHT22;8168;49.036;7.690;2022-08-21T13:07:10;26.50;61.50
16128;DHT22;8168;49.036;7.690;2022-08-21T13:10:04;26.40;61.90
16128;DHT22;8168;49.036;7.690;2022-08-21T13:12:35;26.20;62.20
16128;DHT22;8168;49.036;7.690;2022-08-21T13:15:08;26.20;64.20
16128;DHT22;8168;49.036;7.690;2022-08-21T13:17:42;26.30;64.30
16128;DHT22;8168;49.036;7.690;2022-08-21T13:20:24;26.30;64.00
16128;DHT22;8168;49.036;7.690;2022-08-21T13:22:55;26.30;63.60
16128;DHT22;8168;49.036;7.690;2022-08-21T13:25:29;26.40;62.00
16128;DHT22;8168;49.036;7.690;2022-08-21T13:28:04;26.60;61.40
16128;DHT22;8168;49.036;7.690;2022-08-21T13:30:42;26.60;61.20
16128;DHT22;8168;49.036;7.690;2022-08-21T13:33:20;26.90;61.00
16128;DHT22;8168;49.036;7.690;2022-08-21T13:38:32;27.30;59.40
16128;DHT22;8168;49.036;7.690;2022-08-21T13:41:20;27.40;60.30
16128;DHT22;8168;49.036;7.690;2022-08-21T13:44:00;27.50;59.30
16128;DHT22;8168;49.036;7.690;2022-08-21T13:46:34;27.60;59.70
16128;DHT22;8168;49.036;7.690;2022-08-21T13:49:06;27.60;60.40
16128;DHT22;8168;49.036;7.690;2022-08-21T13:51:39;27.50;59.70
16128;DHT22;8168;49.036;7.690;2022-08-21T13:54:26;27.50;59.20
16128;DHT22;8168;49.036;7.690;2022-08-21T13:56:59;27.50;57.90
16128;DHT22;8168;49.036;7.690;2022-08-21T13:59:31;27.40;57.80
16128;DHT22;8168;49.036;7.690;2022-08-21T14:02:13;27.70;57.20
16128;DHT22;8168;49.036;7.690;2022-08-21T14:04:55;27.80;57.50
16128;DHT22;8168;49.036;7.690;2022-08-21T14:07:31;27.90;56.20
16128;DHT22;8168;49.036;7.690;2022-08-21T14:12:55;28.00;57.40
16128;DHT22;8168;49.036;7.690;2022-08-21T14:15:29;28.00;55.80
16128;DHT22;8168;49.036;7.690;2022-08-21T14:18:15;28.00;55.40
16128;DHT22;8168;49.036;7.690;2022-08-21T14:20:46;27.40;54.20
16128;DHT22;8168;49.036;7.690;2022-08-21T14:23:26;27.90;56.40
16128;DHT22;8168;49.036;7.690;2022-08-21T14:26:03;28.00;56.20
16128;DHT22;8168;49.036;7.690;2022-08-21T14:28:39;28.10;55.40
16128;DHT22;8168;49.036;7.690;2022-08-21T14:31:17;28.00;55.20
16128;DHT22;8168;49.036;7.690;2022-08-21T14:33:48;28.10;54.80
16128;DHT22;8168;49.036;7.690;2022-08-21T14:36:19;28.00;55.40
16128;DHT22;8168;49.036;7.690;2022-08-21T14:38:49;28.00;54.30
16128;DHT22;8168;49.036;7.690;2022-08-21T14:41:23;27.80;54.80
16128;DHT22;8168;49.036;7.690;2022-08-21T14:43:56;27.70;54.70
16128;DHT22;8168;49.036;7.690;2022-08-21T14:46:29;27.60;55.70
16128;DHT22;8168;49.036;7.690;2022-08-21T14:49:01;27.60;56.30
16128;DHT22;8168;49.036;7.690;2022-08-21T14:51:32;27.50;56.10
16128;DHT22;8168;49.036;7.690;2022-08-21T14:54:02;27.30;56.50
16128;DHT22;8168;49.036;7.690;2022-08-21T14:56:33;27.40;56.40
16128;DHT22;8168;49.036;7.690;2022-08-21T14:59:06;27.50;56.40
16128;DHT22;8168;49.036;7.690;2022-08-21T15:01:39;27.50;55.60
16128;DHT22;8168;49.036;7.690;2022-08-21T15:04:09;27.40;54.60
16128;DHT22;8168;49.036;7.690;2022-08-21T15:06:40;27.40;55.20
16128;DHT22;8168;49.036;7.690;2022-08-21T15:09:11;27.50;55.30
16128;DHT22;8168;49.036;7.690;2022-08-21T15:11:42;27.50;55.70
16128;DHT22;8168;49.036;7.690;2022-08-21T15:14:22;27.60;54.70
16128;DHT22;8168;49.036;7.690;2022-08-21T15:16:53;27.60;54.70
16128;DHT22;8168;49.036;7.690;2022-08-21T15:19:24;27.60;55.10
16128;DHT22;8168;49.036;7.690;2022-08-21T15:21:54;27.50;57.50
16128;DHT22;8168;49.036;7.690;2022-08-21T15:24:25;27.50;58.00
16128;DHT22;8168;49.036;7.690;2022-08-21T15:26:59;27.40;57.80
16128;DHT22;8168;49.036;7.690;2022-08-21T15:29:30;27.40;59.60
16128;DHT22;8168;49.036;7.690;2022-08-21T15:32:22;27.30;61.50
16128;DHT22;8168;49.036;7.690;2022-08-21T15:34:54;27.30;59.40
16128;DHT22;8168;49.036;7.690;2022-08-21T15:37:26;27.40;57.80
16128;DHT22;8168;49.036;7.690;2022-08-21T15:39:56;27.50;55.70
16128;DHT22;8168;49.036;7.690;2022-08-21T15:42:27;27.50;56.20
16128;DHT22;8168;49.036;7.690;2022-08-21T15:44:58;27.40;55.70
16128;DHT22;8168;49.036;7.690;2022-08-21T15:47:31;27.40;55.80
16128;DHT22;8168;49.036;7.690;2022-08-21T15:50:06;27.40;56.20
16128;DHT22;8168;49.036;7.690;2022-08-21T15:52:38;27.40;55.80
16128;DHT22;8168;49.036;7.690;2022-08-21T15:55:09;27.40;56.40
16128;DHT22;8168;49.036;7.690;2022-08-21T15:57:47;27.20;56.90
16128;DHT22;8168;49.036;7.690;2022-08-21T16:00:21;27.10;57.20
16128;DHT22;8168;49.036;7.690;2022-08-21T16:02:56;27.00;57.20
16128;DHT22;8168;49.036;7.690;2022-08-21T16:05:27;27.00;59.10
16128;DHT22;8168;49.036;7.690;2022-08-21T16:07:58;26.90;60.20
16128;DHT22;8168;49.036;7.690;2022-08-21T16:10:29;26.90;60.20
16128;DHT22;8168;49.036;7.690;2022-08-21T16:13:03;26.90;62.80
16128;DHT22;8168;49.036;7.690;2022-08-21T16:15:34;26.80;63.50
16128;DHT22;8168;49.036;7.690;2022-08-21T16:18:05;26.80;62.90
16128;DHT22;8168;49.036;7.690;2022-08-21T16:20:35;26.80;62.90
16128;DHT22;8168;49.036;7.690;2022-08-21T16:23:06;26.80;62.60
16128;DHT22;8168;49.036;7.690;2022-08-21T16:25:37;26.70;60.20
16128;DHT22;8168;49.036;7.690;2022-08-21T16:28:12;26.60;59.50
16128;DHT22;8168;49.036;7.690;2022-08-21T16:30:45;26.50;59.50
16128;DHT22;8168;49.036;7.690;2022-08-21T16:33:42;26.40;60.70
16128;DHT22;8168;49.036;7.690;2022-08-21T16:36:14;26.30;63.60
16128;DHT22;8168;49.036;7.690;2022-08-21T16:38:45;26.30;63.60
16128;DHT22;8168;49.036;7.690;2022-08-21T16:41:18;26.30;66.40
16128;DHT22;8168;49.036;7.690;2022-08-21T16:43:50;26.20;68.80
16128;DHT22;8168;49.036;7.690;2022-08-21T16:46:21;26.20;68.70
16128;DHT22;8168;49.036;7.690;2022-08-21T16:48:52;26.30;68.40
16128;DHT22;8168;49.036;7.690;2022-08-21T16:51:23;26.30;70.10
16128;DHT22;8168;49.036;7.690;2022-08-21T16:53:54;26.20;71.50
16128;DHT22;8168;49.036;7.690;2022-08-21T16:56:25;26.10;71.60
16128;DHT22;8168;49.036;7.690;2022-08-21T16:58:57;25.90;71.30
16128;DHT22;8168;49.036;7.690;2022-08-21T17:01:30;25.90;71.20
16128;DHT22;8168;49.036;7.690;2022-08-21T17:04:01;25.80;68.20
16128;DHT22;8168;49.036;7.690;2022-08-21T17:06:33;25.80;69.60
16128;DHT22;8168;49.036;7.690;2022-08-21T17:09:03;25.70;71.10
16128;DHT22;8168;49.036;7.690;2022-08-21T17:11:38;25.60;71.10
16128;DHT22;8168;49.036;7.690;2022-08-21T17:14:21;25.50;71.00
16128;DHT22;8168;49.036;7.690;2022-08-21T17:16:54;25.50;73.00
16128;DHT22;8168;49.036;7.690;2022-08-21T17:19:25;25.50;73.20
16128;DHT22;8168;49.036;7.690;2022-08-21T17:21:56;25.50;72.50
16128;DHT22;8168;49.036;7.690;2022-08-21T17:24:26;25.40;73.30
16128;DHT22;8168;49.036;7.690;2022-08-21T17:26:57;25.20;74.60
16128;DHT22;8168;49.036;7.690;2022-08-21T17:29:34;25.10;74.60
16128;DHT22;8168;49.036;7.690;2022-08-21T17:32:11;25.00;75.30
16128;DHT22;8168;49.036;7.690;2022-08-21T17:34:43;24.80;76.80
16128;DHT22;8168;49.036;7.690;2022-08-21T17:37:14;24.70;77.60
16128;DHT22;8168;49.036;7.690;2022-08-21T17:39:45;24.70;77.60